Time;durP1;ratioP1;P1;durP2;ratioP2;P2;SDS_P1;SDS_P2;PMS_P1;PMS_P2;Temp;Humidity;BMP_temperature;BMP_pressure;BME280_temperature;BME280_humidity;BME280_pressure;Samples;Min_cycle;Max_cycle;Signal;HPM_P1;HPM_P2
2024/01/02 00:01:40;;;;;;;35.50;21.80;;;;;;;;;;6280029;28;20750;-72
2024/01/02 00:04:43;;;;;;;34.60;20.65;;;;;;;;;;6290496;28;20726;-72
2024/01/02 00:07:45;;;;;;;39.13;19.90;;;;;;;;;;6271430;28;20515;-73
2024/01/02 00:10:47;;;;;;;36.15;21.77;;;;;;;;;;6277205;28;20065;-72
2024/01/02 00:13:49;;;;;;;37.97;22.27;;;;;;;;;;6272141;28;20083;-73
2024/01/02 00:16:51;;;;;;;42.72;24.58;;;;;;;;;;6273437;28;20550;-72
2024/01/02 00:19:54;;;;;;;40.15;22.48;;;;;;;;;;6287685;28;20139;-73
2024/01/02 00:22:56;;;;;;;43.00;22.05;;;;;;;;;;6289744;28;20040;-73
2024/01/02 00:25:58;;;;;;;37.05;21.77;;;;;;;;;;6297794;28;20050;-72
2024/01/02 00:29:00;;;;;;;41.53;21.40;;;;;;;;;;6294441;28;20639;-72
2024/01/02 00:32:03;;;;;;;39.15;21.70;;;;;;;;;;6283693;28;20586;-73
2024/01/02 00:35:06;;;;;;;36.42;21.58;;;;;;;;;;6272207;28;20466;-73
2024/01/02 00:38:09;;;;;;;38.67;21.83;;;;;;;;;;6272314;28;20052;-73
2024/01/02 00:41:11;;;;;;;37.08;20.23;;;;;;;;;;6289656;28;20455;-73
2024/01/02 00:44:15;;;;;;;36.20;21.38;;;;;;;;;;6291039;28;20051;-73
2024/01/02 00:47:21;;;;;;;40.60;22.88;;;;;;;;;;6289985;28;20044;-73
2024/01/02 00:50:23;;;;;;;38.47;22.33;;;;;;;;;;6279870;28;20601;-72
2024/01/02 00:53:25;;;;;;;38.60;22.42;;;;;;;;;;6275892;28;20139;-72
2024/01/02 00:56:28;;;;;;;37.22;22.38;;;;;;;;;;6284543;28;20054;-72
2024/01/02 00:59:31;;;;;;;47.30;24.10;;;;;;;;;;6276500;28;20101;-72
2024/01/02 01:02:33;;;;;;;41.53;23.48;;;;;;;;;;6272974;28;20074;-72
2024/01/02 01:05:36;;;;;;;50.35;26.33;;;;;;;;;;6285828;28;20049;-72
2024/01/02 01:08:39;;;;;;;44.88;24.70;;;;;;;;;;6300956;28;20049;-71
2024/01/02 01:11:42;;;;;;;43.28;25.42;;;;;;;;;;6297954;28;20049;-72
2024/01/02 01:14:43;;;;;;;44.65;24.20;;;;;;;;;;6277818;28;20043;-72
2024/01/02 01:17:45;;;;;;;48.83;25.13;;;;;;;;;;6285194;28;20047;-72
2024/01/02 01:20:48;;;;;;;49.60;27.98;;;;;;;;;;6275672;28;20048;-72
2024/01/02 01:23:50;;;;;;;50.38;26.25;;;;;;;;;;6305695;28;20086;-73
2024/01/02 01:26:53;;;;;;;46.10;24.90;;;;;;;;;;6311991;28;20049;-72
2024/01/02 01:29:55;;;;;;;49.20;25.90;;;;;;;;;;6317718;28;20032;-72
2024/01/02 01:32:57;;;;;;;40.38;24.63;;;;;;;;;;6306177;28;20068;-72
2024/01/02 01:35:59;;;;;;;47.58;27.58;;;;;;;;;;6297783;28;20044;-73
2024/01/02 01:39:04;;;;;;;48.15;27.45;;;;;;;;;;6290907;28;20048;-72
2024/01/02 01:42:06;;;;;;;45.53;26.60;;;;;;;;;;6313721;28;20125;-71
2024/01/02 01:45:08;;;;;;;49.25;28.58;;;;;;;;;;6279304;28;20047;-71
2024/01/02 01:48:11;;;;;;;44.83;26.38;;;;;;;;;;6295476;28;20161;-72
2024/01/02 01:51:13;;;;;;;53.88;27.83;;;;;;;;;;6277886;28;20472;-72
2024/01/02 01:54:15;;;;;;;49.72;27.17;;;;;;;;;;6271595;28;20460;-72
2024/01/02 01:57:18;;;;;;;47.13;26.48;;;;;;;;;;6283073;28;20131;-71
2024/01/02 02:00:20;;;;;;;51.67;26.00;;;;;;;;;;6307543;28;20052;-71
2024/01/02 02:03:24;;;;;;;48.85;26.23;;;;;;;;;;6270930;28;20717;-72
2024/01/02 02:06:26;;;;;;;41.58;24.77;;;;;;;;;;6273968;28;20471;-72
2024/01/02 02:09:29;;;;;;;49.63;27.20;;;;;;;;;;6268299;28;20064;-71
2024/01/02 02:12:31;;;;;;;47.15;27.70;;;;;;;;;;6246691;28;20056;-72
2024/01/02 02:15:38;;;;;;;47.75;25.88;;;;;;;;;;6278867;28;20071;-72
2024/01/02 02:18:41;;;;;;;43.22;24.98;;;;;;;;;;6290321;28;20121;-71
2024/01/02 02:21:47;;;;;;;49.55;26.48;;;;;;;;;;6288002;28;20823;-72
2024/01/02 02:24:49;;;;;;;41.70;24.60;;;;;;;;;;6264378;28;20040;-73
2024/01/02 02:27:51;;;;;;;46.40;26.02;;;;;;;;;;6300243;28;20058;-74
2024/01/02 02:30:53;;;;;;;46.55;24.75;;;;;;;;;;6276875;28;20075;-72
2024/01/02 02:33:56;;;;;;;41.33;23.38;;;;;;;;;;6288158;28;20092;-72
2024/01/02 02:36:58;;;;;;;46.88;26.45;;;;;;;;;;6290035;28;20055;-72
2024/01/02 02:40:00;;;;;;;45.88;24.98;;;;;;;;;;6258420;28;20048;-71
2024/01/02 02:43:02;;;;;;;49.33;26.70;;;;;;;;;;6274575;28;20049;-72
2024/01/02 02:46:07;;;;;;;49.75;25.52;;;;;;;;;;6298748;28;20097;-72
2024/01/02 02:49:11;;;;;;;47.38;26.10;;;;;;;;;;6295687;28;20040;-72
2024/01/02 02:52:13;;;;;;;41.72;24.45;;;;;;;;;;6281662;28;20052;-72
2024/01/02 02:55:15;;;;;;;47.72;27.90;;;;;;;;;;6276259;28;20515;-73
2024/01/02 02:58:18;;;;;;;44.08;24.75;;;;;;;;;;6260465;28;20088;-72
2024/01/02 03:01:21;;;;;;;43.28;24.77;;;;;;;;;;6275699;28;20047;-72
2024/01/02 03:04:23;;;;;;;49.42;25.83;;;;;;;;;;6295283;28;20059;-72
2024/01/02 03:07:25;;;;;;;37.60;21.05;;;;;;;;;;6299645;28;20040;-72
2024/01/02 03:10:27;;;;;;;37.20;22.08;;;;;;;;;;6284446;28;20162;-71
2024/01/02 03:13:29;;;;;;;34.33;20.13;;;;;;;;;;6303362;28;20040;-72
2024/01/02 03:16:32;;;;;;;47.65;25.55;;;;;;;;;;6299242;28;20045;-71
2024/01/02 03:19:34;;;;;;;37.13;21.38;;;;;;;;;;6296029;28;20040;-72
2024/01/02 03:22:36;;;;;;;29.08;17.52;;;;;;;;;;6292282;28;20080;-71
2024/01/02 03:25:38;;;;;;;41.10;22.98;;;;;;;;;;6281319;28;20106;-71
2024/01/02 03:28:40;;;;;;;30.27;18.17;;;;;;;;;;6295298;28;20056;-70
2024/01/02 03:31:45;;;;;;;28.10;16.88;;;;;;;;;;6277417;28;20145;-70
2024/01/02 03:34:50;;;;;;;32.05;17.48;;;;;;;;;;6258184;28;20082;-72
2024/01/02 03:37:54;;;;;;;28.33;17.02;;;;;;;;;;6283058;28;20556;-72
2024/01/02 03:40:56;;;;;;;30.60;17.35;;;;;;;;;;6253930;28;20730;-72
2024/01/02 03:43:58;;;;;;;29.85;15.07;;;;;;;;;;6250995;28;20139;-71
2024/01/02 03:47:00;;;;;;;28.15;16.73;;;;;;;;;;6280744;28;20186;-72
2024/01/02 03:50:03;;;;;;;28.60;16.05;;;;;;;;;;6296601;28;20044;-72
2024/01/02 03:53:06;;;;;;;28.15;16.90;;;;;;;;;;6288083;28;20099;-72
2024/01/02 03:56:10;;;;;;;30.17;16.90;;;;;;;;;;6306048;28;20048;-71
2024/01/02 03:59:12;;;;;;;28.58;16.20;;;;;;;;;;6284682;28;20059;-72
2024/01/02 04:02:15;;;;;;;35.28;17.67;;;;;;;;;;6293920;28;20539;-71
2024/01/02 04:05:17;;;;;;;31.38;18.30;;;;;;;;;;6274215;28;20033;-71
2024/01/02 04:08:19;;;;;;;30.65;17.15;;;;;;;;;;6289780;28;20047;-72
2024/01/02 04:11:21;;;;;;;34.30;19.27;;;;;;;;;;6273929;28;20049;-72
2024/01/02 04:14:24;;;;;;;34.22;17.73;;;;;;;;;;6252778;28;20057;-72
2024/01/02 04:17:26;;;;;;;33.55;19.05;;;;;;;;;;6312279;28;20059;-72
2024/01/02 04:20:28;;;;;;;31.02;17.75;;;;;;;;;;6278329;28;20067;-72
2024/01/02 04:23:30;;;;;;;34.25;20.67;;;;;;;;;;6267021;28;20072;-71
2024/01/02 04:26:32;;;;;;;28.00;17.38;;;;;;;;;;6299062;28;20779;-72
2024/01/02 04:29:34;;;;;;;33.33;21.67;;;;;;;;;;6283562;28;20501;-71
2024/01/02 04:32:36;;;;;;;36.35;18.85;;;;;;;;;;6275494;28;20044;-72
2024/01/02 04:35:38;;;;;;;40.17;23.23;;;;;;;;;;6290946;28;20048;-71
2024/01/02 04:38:41;;;;;;;35.78;22.25;;;;;;;;;;6289446;28;20414;-71
2024/01/02 04:41:44;;;;;;;34.83;20.15;;;;;;;;;;6281175;28;20084;-71
2024/01/02 04:44:46;;;;;;;33.15;20.42;;;;;;;;;;6276178;28;20153;-71
2024/01/02 04:47:48;;;;;;;31.80;20.10;;;;;;;;;;6273702;28;20036;-72
2024/01/02 04:50:50;;;;;;;34.17;20.23;;;;;;;;;;6265518;28;20045;-72
2024/01/02 04:53:52;;;;;;;39.00;24.13;;;;;;;;;;6296293;28;20041;-72
2024/01/02 04:56:54;;;;;;;34.15;21.42;;;;;;;;;;6291587;28;20036;-71
2024/01/02 04:59:56;;;;;;;31.25;20.90;;;;;;;;;;6299216;28;20101;-72
2024/01/02 05:02:58;;;;;;;32.33;20.60;;;;;;;;;;6283720;28;20045;-72
2024/01/02 05:06:01;;;;;;;32.42;20.05;;;;;;;;;;6275912;28;20560;-72
2024/01/02 05:09:04;;;;;;;30.40;19.52;;;;;;;;;;6274700;28;20083;-72
2024/01/02 05:12:06;;;;;;;31.77;18.60;;;;;;;;;;6262139;28;20053;-72
2024/01/02 05:15:09;;;;;;;37.97;19.83;;;;;;;;;;6300977;28;20529;-72
2024/01/02 05:18:11;;;;;;;32.58;19.65;;;;;;;;;;6290856;28;20904;-71
2024/01/02 05:21:14;;;;;;;33.03;19.23;;;;;;;;;;6258430;28;20048;-72
2024/01/02 05:24:16;;;;;;;32.33;17.90;;;;;;;;;;6288837;28;20419;-72
2024/01/02 05:27:19;;;;;;;25.20;15.50;;;;;;;;;;6279970;28;20793;-72
2024/01/02 05:30:22;;;;;;;18.25;11.00;;;;;;;;;;6307385;28;20085;-72
2024/01/02 05:33:25;;;;;;;14.40;8.25;;;;;;;;;;6291495;28;20052;-71
2024/01/02 05:36:27;;;;;;;14.85;8.88;;;;;;;;;;6297114;28;20091;-71
2024/01/02 05:39:29;;;;;;;12.43;9.57;;;;;;;;;;6285521;28;20058;-72
2024/01/02 05:42:32;;;;;;;12.82;9.57;;;;;;;;;;6284291;28;20057;-71
2024/01/02 05:45:36;;;;;;;13.52;9.65;;;;;;;;;;6286721;28;20217;-71
2024/01/02 05:48:38;;;;;;;12.07;7.90;;;;;;;;;;6285545;28;20059;-72
2024/01/02 05:51:40;;;;;;;15.82;9.25;;;;;;;;;;6280352;28;20528;-72
2024/01/02 05:54:42;;;;;;;10.02;6.25;;;;;;;;;;6299616;28;20545;-72
2024/01/02 05:57:44;;;;;;;16.25;10.35;;;;;;;;;;6296077;28;20048;-72
2024/01/02 06:00:47;;;;;;;14.70;9.82;;;;;;;;;;6270226;28;20060;-72
2024/01/02 06:03:50;;;;;;;13.63;7.95;;;;;;;;;;6281079;28;20044;-71
2024/01/02 06:06:52;;;;;;;14.88;8.70;;;;;;;;;;6282988;28;20044;-72
2024/01/02 06:09:54;;;;;;;14.65;8.68;;;;;;;;;;6268252;28;20066;-72
2024/01/02 06:12:56;;;;;;;18.30;11.07;;;;;;;;;;6267430;28;20068;-71
2024/01/02 06:15:59;;;;;;;15.13;9.32;;;;;;;;;;6254878;28;20427;-72
2024/01/02 06:19:01;;;;;;;16.23;11.45;;;;;;;;;;6286710;28;20049;-72
2024/01/02 06:22:04;;;;;;;16.42;11.38;;;;;;;;;;6269136;28;20041;-72
2024/01/02 06:25:08;;;;;;;21.48;13.25;;;;;;;;;;6276624;28;20131;-72
2024/01/02 06:28:11;;;;;;;20.48;12.65;;;;;;;;;;6287217;28;20040;-73
2024/01/02 06:31:13;;;;;;;17.63;10.73;;;;;;;;;;6287046;28;20044;-72
2024/01/02 06:34:15;;;;;;;13.70;8.68;;;;;;;;;;6272117;28;20265;-72
2024/01/02 06:37:17;;;;;;;13.57;8.60;;;;;;;;;;6291128;28;20051;-73
2024/01/02 06:40:20;;;;;;;15.23;9.70;;;;;;;;;;6260322;28;20114;-74
2024/01/02 06:43:23;;;;;;;6.55;4.25;;;;;;;;;;6274862;28;20052;-73
2024/01/02 06:46:25;;;;;;;10.00;5.60;;;;;;;;;;6286594;28;20059;-73
2024/01/02 06:49:27;;;;;;;8.18;5.10;;;;;;;;;;6277436;28;20047;-74
2024/01/02 06:52:29;;;;;;;11.43;6.55;;;;;;;;;;6272653;28;20537;-75
2024/01/02 06:55:31;;;;;;;5.95;3.45;;;;;;;;;;6263833;28;20048;-74
2024/01/02 06:58:34;;;;;;;4.82;3.00;;;;;;;;;;6271777;28;20438;-75
2024/01/02 07:01:36;;;;;;;4.72;2.97;;;;;;;;;;6277419;28;20533;-73
2024/01/02 07:04:40;;;;;;;5.75;3.67;;;;;;;;;;6268072;28;20049;-73
2024/01/02 07:07:42;;;;;;;4.88;3.33;;;;;;;;;;6295413;28;20032;-72
2024/01/02 07:10:49;;;;;;;7.70;4.45;;;;;;;;;;6293582;28;20052;-73
2024/01/02 07:13:52;;;;;;;4.40;2.70;;;;;;;;;;6258192;28;20549;-72
2024/01/02 07:16:54;;;;;;;3.90;2.75;;;;;;;;;;6324524;28;20033;-74
2024/01/02 07:19:58;;;;;;;3.30;2.10;;;;;;;;;;6307355;28;20051;-73
2024/01/02 07:23:00;;;;;;;6.13;4.93;;;;;;;;;;6267506;28;20429;-73
2024/01/02 07:26:03;;;;;;;5.60;4.32;;;;;;;;;;6294814;28;20040;-73
2024/01/02 07:29:05;;;;;;;8.57;7.10;;;;;;;;;;6280874;28;20800;-73
2024/01/02 07:32:07;;;;;;;12.32;8.52;;;;;;;;;;6278733;28;20613;-73
2024/01/02 07:35:09;;;;;;;10.23;6.07;;;;;;;;;;6294665;28;20569;-73
2024/01/02 07:38:11;;;;;;;16.02;7.72;;;;;;;;;;6293517;28;20048;-73
2024/01/02 07:41:13;;;;;;;5.38;3.70;;;;;;;;;;6264006;28;20879;-73
2024/01/02 07:44:15;;;;;;;10.00;5.03;;;;;;;;;;6275653;28;20044;-73
2024/01/02 07:47:17;;;;;;;7.97;5.45;;;;;;;;;;6292173;28;20174;-73
2024/01/02 07:50:20;;;;;;;17.45;10.35;;;;;;;;;;6296861;28;20177;-74
2024/01/02 07:53:25;;;;;;;14.45;7.50;;;;;;;;;;6286370;28;20367;-73
2024/01/02 07:56:28;;;;;;;9.02;4.63;;;;;;;;;;6308226;28;20489;-73
2024/01/02 07:59:30;;;;;;;9.48;6.75;;;;;;;;;;6281365;28;20080;-73
2024/01/02 08:02:33;;;;;;;7.68;4.65;;;;;;;;;;6263684;28;20159;-73
2024/01/02 08:05:35;;;;;;;6.15;3.55;;;;;;;;;;6285608;28;20063;-73
2024/01/02 08:08:38;;;;;;;8.35;4.88;;;;;;;;;;6277882;28;20040;-73
2024/01/02 08:11:40;;;;;;;5.28;4.75;;;;;;;;;;6287870;28;20558;-73
2024/01/02 08:14:42;;;;;;;9.50;6.15;;;;;;;;;;6281229;28;20047;-73
2024/01/02 08:17:46;;;;;;;7.57;6.32;;;;;;;;;;6256153;28;20055;-73
2024/01/02 08:20:48;;;;;;;11.85;7.75;;;;;;;;;;6274122;28;20052;-73
2024/01/02 08:23:50;;;;;;;9.00;7.30;;;;;;;;;;6271400;28;20433;-73
2024/01/02 08:26:53;;;;;;;9.07;6.80;;;;;;;;;;6242925;28;20049;-73
2024/01/02 08:29:55;;;;;;;7.88;4.25;;;;;;;;;;6264452;28;20048;-74
2024/01/02 08:32:58;;;;;;;4.40;2.88;;;;;;;;;;6286770;28;20242;-73
2024/01/02 08:36:01;;;;;;;6.28;4.38;;;;;;;;;;6275747;28;20142;-74
2024/01/02 08:39:03;;;;;;;8.32;5.55;;;;;;;;;;6259720;28;20048;-74
2024/01/02 08:42:05;;;;;;;24.25;18.42;;;;;;;;;;6261475;28;20820;-74
2024/01/02 08:45:10;;;;;;;10.48;7.57;;;;;;;;;;6273767;28;20048;-73
2024/01/02 08:48:14;;;;;;;3.58;2.35;;;;;;;;;;6262112;28;20046;-74
2024/01/02 08:51:17;;;;;;;6.28;2.90;;;;;;;;;;6267701;28;20941;-73
2024/01/02 08:54:19;;;;;;;4.65;2.88;;;;;;;;;;6279718;28;20081;-74
2024/01/02 08:57:21;;;;;;;5.32;3.38;;;;;;;;;;6286681;28;20119;-74
2024/01/02 09:00:24;;;;;;;6.20;3.63;;;;;;;;;;6287493;28;20055;-73
2024/01/02 09:03:28;;;;;;;3.75;2.28;;;;;;;;;;6254116;28;20182;-74
2024/01/02 09:06:30;;;;;;;5.53;3.47;;;;;;;;;;6263681;28;20044;-73
2024/01/02 09:09:33;;;;;;;4.45;4.05;;;;;;;;;;6277011;28;20069;-74
2024/01/02 09:12:35;;;;;;;5.95;3.20;;;;;;;;;;6270883;28;20271;-74
2024/01/02 09:15:38;;;;;;;4.53;2.30;;;;;;;;;;6290831;28;20048;-74
2024/01/02 09:18:40;;;;;;;3.28;2.38;;;;;;;;;;6288413;28;20040;-74
2024/01/02 09:21:42;;;;;;;5.68;3.00;;;;;;;;;;6272429;28;20057;-74
2024/01/02 09:24:46;;;;;;;4.53;3.47;;;;;;;;;;6268802;28;20182;-74
2024/01/02 09:27:48;;;;;;;13.38;7.53;;;;;;;;;;6289395;28;20036;-71
2024/01/02 09:30:51;;;;;;;4.10;2.60;;;;;;;;;;6262288;28;20048;-73
2024/01/02 09:33:53;;;;;;;3.88;2.10;;;;;;;;;;6254567;28;20127;-73
2024/01/02 09:36:56;;;;;;;9.20;4.80;;;;;;;;;;6295331;28;20062;-73
2024/01/02 09:39:58;;;;;;;6.88;3.55;;;;;;;;;;6295856;28;20048;-72
2024/01/02 09:43:04;;;;;;;10.20;6.45;;;;;;;;;;6275500;28;20040;-74
2024/01/02 09:46:21;;;;;;;7.28;4.00;;;;;;;;;;6291352;28;20040;-75
2024/01/02 09:50:22;;;;;;;6.60;4.82;;;;;;;;;;6283414;28;20040;-74
2024/01/02 09:53:42;;;;;;;5.93;2.72;;;;;;;;;;6230329;28;20585;-74
2024/01/02 09:56:48;;;;;;;5.63;3.55;;;;;;;;;;6220756;28;20050;-75
2024/01/02 10:00:11;;;;;;;4.53;3.33;;;;;;;;;;6284539;28;20520;-73
2024/01/02 10:03:29;;;;;;;6.93;5.80;;;;;;;;;;6281783;28;20052;-72
2024/01/02 10:06:37;;;;;;;7.50;2.85;;;;;;;;;;6300891;28;20518;-72
2024/01/02 10:10:17;;;;;;;4.68;3.08;;;;;;;;;;6303187;28;20044;-73
2024/01/02 10:13:25;;;;;;;9.02;5.60;;;;;;;;;;6278658;28;20515;-74
2024/01/02 10:16:31;;;;;;;7.63;3.80;;;;;;;;;;6268162;28;21193;-75
2024/01/02 10:20:23;;;;;;;8.00;3.97;;;;;;;;;;6312474;28;20032;-74
2024/01/02 10:23:41;;;;;;;6.97;4.75;;;;;;;;;;6225177;28;20587;-73
2024/01/02 10:27:12;;;;;;;6.63;3.95;;;;;;;;;;6288184;28;20114;-73
2024/01/02 10:30:19;;;;;;;12.23;4.70;;;;;;;;;;6297295;28;20037;-73
2024/01/02 10:33:36;;;;;;;5.63;3.47;;;;;;;;;;6289477;28;20789;-73
2024/01/02 10:36:43;;;;;;;6.75;2.72;;;;;;;;;;6281951;28;20918;-73
2024/01/02 10:40:03;;;;;;;10.27;6.40;;;;;;;;;;6284400;28;20513;-74
2024/01/02 10:43:10;;;;;;;5.70;3.20;;;;;;;;;;6288035;28;20048;-73
2024/01/02 10:46:30;;;;;;;4.03;3.05;;;;;;;;;;6288304;28;20045;-73
2024/01/02 10:49:50;;;;;;;4.93;2.45;;;;;;;;;;6275020;28;20185;-74
2024/01/02 10:53:17;;;;;;;3.22;2.17;;;;;;;;;;6277534;28;20051;-74
2024/01/02 10:56:42;;;;;;;4.50;3.28;;;;;;;;;;6267132;28;20033;-73
2024/01/02 11:00:04;;;;;;;4.65;3.22;;;;;;;;;;6277569;28;21279;-74
2024/01/02 11:03:10;;;;;;;7.32;2.45;;;;;;;;;;6294299;28;20069;-73
2024/01/02 11:06:18;;;;;;;5.22;2.28;;;;;;;;;;6309353;28;20040;-73
2024/01/02 11:09:32;;;;;;;3.95;2.10;;;;;;;;;;6263277;28;20044;-73
2024/01/02 11:12:52;;;;;;;3.08;1.60;;;;;;;;;;6291700;28;20040;-73
2024/01/02 11:15:58;;;;;;;3.92;2.17;;;;;;;;;;6262107;28;20057;-74
2024/01/02 11:19:04;;;;;;;5.43;2.58;;;;;;;;;;6289699;28;20044;-73
2024/01/02 11:22:16;;;;;;;2.53;1.65;;;;;;;;;;6273588;28;20040;-73
2024/01/02 11:25:22;;;;;;;3.28;2.08;;;;;;;;;;6276291;28;20123;-73
2024/01/02 11:28:41;;;;;;;3.58;1.60;;;;;;;;;;6276240;28;20148;-73
2024/01/02 11:31:46;;;;;;;3.47;3.08;;;;;;;;;;6273969;28;20841;-72
2024/01/02 11:34:59;;;;;;;4.25;2.47;;;;;;;;;;6282380;28;20048;-72
2024/01/02 11:38:12;;;;;;;2.45;1.88;;;;;;;;;;6273788;28;20039;-74
2024/01/02 11:41:41;;;;;;;4.15;2.67;;;;;;;;;;6288684;28;20123;-72
2024/01/02 11:44:59;;;;;;;;;;;;;;;;;;6261176;28;20097;-73
2024/01/02 11:48:06;;;;;;;2.03;1.67;;;;;;;;;;6302308;28;19985;-73
2024/01/02 11:51:24;;;;;;;2.72;1.63;;;;;;;;;;6272161;28;20131;-72
2024/01/02 11:54:56;;;;;;;3.33;2.13;;;;;;;;;;6264823;28;20553;-72
2024/01/02 11:58:08;;;;;;;2.40;1.15;;;;;;;;;;6274372;28;20078;-73
2024/01/02 12:01:32;;;;;;;2.80;1.45;;;;;;;;;;6287550;28;20545;-73
2024/01/02 12:05:00;;;;;;;2.25;1.40;;;;;;;;;;6278377;28;20041;-73
2024/01/02 12:08:06;;;;;;;2.47;1.40;;;;;;;;;;6273715;28;20060;-73
2024/01/02 12:11:14;;;;;;;2.33;1.25;;;;;;;;;;6272305;28;20156;-72
2024/01/02 12:14:48;;;;;;;2.63;1.45;;;;;;;;;;6286131;28;20079;-72
2024/01/02 12:17:50;;;;;;;4.40;1.17;;;;;;;;;;6273114;28;20087;-72
2024/01/02 12:21:00;;;;;;;2.67;2.10;;;;;;;;;;6308639;28;20052;-72
2024/01/02 12:24:04;;;;;;;2.38;1.13;;;;;;;;;;6274967;28;20138;-72
2024/01/02 12:27:07;;;;;;;4.07;2.00;;;;;;;;;;6293941;28;20048;-73
2024/01/02 12:30:17;;;;;;;3.63;1.50;;;;;;;;;;6276981;28;20036;-72
2024/01/02 12:33:34;;;;;;;2.60;1.10;;;;;;;;;;6261786;28;20131;-72
2024/01/02 12:36:43;;;;;;;2.70;1.88;;;;;;;;;;6282910;28;20044;-72
2024/01/02 12:39:50;;;;;;;3.20;2.05;;;;;;;;;;6260395;28;20334;-72
2024/01/02 12:42:54;;;;;;;3.97;2.80;;;;;;;;;;6274255;28;20045;-72
2024/01/02 12:46:02;;;;;;;2.70;1.70;;;;;;;;;;6286605;28;20056;-72
2024/01/02 12:49:11;;;;;;;2.30;1.10;;;;;;;;;;6259566;28;20064;-72
2024/01/02 12:52:21;;;;;;;3.25;1.73;;;;;;;;;;6279697;28;20702;-72
2024/01/02 12:55:24;;;;;;;4.95;1.83;;;;;;;;;;6272695;28;20799;-73
2024/01/02 12:58:31;;;;;;;7.38;3.13;;;;;;;;;;6240919;28;20041;-73
2024/01/02 13:01:33;;;;;;;2.83;1.30;;;;;;;;;;6282089;28;20036;-72
2024/01/02 13:04:37;;;;;;;7.78;4.82;;;;;;;;;;6281597;28;20130;-72
2024/01/02 13:07:41;;;;;;;2.03;1.13;;;;;;;;;;6256836;28;20045;-72
2024/01/02 13:10:48;;;;;;;2.05;0.82;;;;;;;;;;6281011;28;20044;-72
2024/01/02 13:13:51;;;;;;;3.97;1.65;;;;;;;;;;6292467;28;20048;-72
2024/01/02 13:16:53;;;;;;;3.85;1.58;;;;;;;;;;6273017;28;20043;-73
2024/01/02 13:19:57;;;;;;;4.45;2.38;;;;;;;;;;6269575;28;20040;-73
2024/01/02 13:22:59;;;;;;;5.47;2.95;;;;;;;;;;6290614;28;20073;-74
2024/01/02 13:26:02;;;;;;;4.47;3.15;;;;;;;;;;6271363;28;20607;-73
2024/01/02 13:29:11;;;;;;;5.30;3.05;;;;;;;;;;6279303;28;20438;-73
2024/01/02 13:32:14;;;;;;;2.67;1.17;;;;;;;;;;6305633;28;20033;-73
2024/01/02 13:35:20;;;;;;;2.85;1.60;;;;;;;;;;6301460;28;20198;-72
2024/01/02 13:38:22;;;;;;;7.18;3.40;;;;;;;;;;6288555;28;20438;-72
2024/01/02 13:41:24;;;;;;;3.35;1.83;;;;;;;;;;6281327;28;20048;-73
2024/01/02 13:44:26;;;;;;;4.00;2.42;;;;;;;;;;6287800;28;20457;-72
2024/01/02 13:47:33;;;;;;;3.47;1.83;;;;;;;;;;6282492;28;20051;-73
2024/01/02 13:50:37;;;;;;;4.22;2.10;;;;;;;;;;6288515;28;20052;-73
2024/01/02 13:54:06;;;;;;;4.20;2.10;;;;;;;;;;6263295;28;20045;-72
2024/01/02 13:57:08;;;;;;;9.52;3.70;;;;;;;;;;6288203;28;20123;-73
2024/01/02 14:00:13;;;;;;;20.52;8.73;;;;;;;;;;6266164;28;20048;-73
2024/01/02 14:03:18;;;;;;;9.43;3.63;;;;;;;;;;6274150;28;20064;-72
2024/01/02 14:06:21;;;;;;;;;;;;;;;;;;6283630;28;20840;-73
2024/01/02 14:09:24;;;;;;;12.48;6.32;;;;;;;;;;6286713;28;19933;-73
2024/01/02 14:12:39;;;;;;;33.15;12.60;;;;;;;;;;6267812;28;20735;-73
2024/01/02 14:15:43;;;;;;;30.27;13.23;;;;;;;;;;6275682;28;20102;-72
2024/01/02 14:18:47;;;;;;;11.27;8.10;;;;;;;;;;6277461;28;20443;-72
2024/01/02 14:21:51;;;;;;;5.65;3.72;;;;;;;;;;6292756;28;20155;-72
2024/01/02 14:25:35;;;;;;;3.35;2.33;;;;;;;;;;6297625;28;20044;-73
2024/01/02 14:28:45;;;;;;;5.47;2.92;;;;;;;;;;6273982;28;20032;-72
2024/01/02 14:32:00;;;;;;;10.25;7.22;;;;;;;;;;6259607;28;20467;-72
2024/01/02 14:35:13;;;;;;;8.05;7.18;;;;;;;;;;6255160;28;20048;-71
2024/01/02 14:38:27;;;;;;;9.82;5.20;;;;;;;;;;6278956;28;20037;-72
2024/01/02 14:41:55;;;;;;;11.45;5.05;;;;;;;;;;6272231;28;20048;-73
2024/01/02 14:45:17;;;;;;;6.95;3.83;;;;;;;;;;6258846;28;20057;-74
2024/01/02 14:49:13;;;;;;;10.27;7.65;;;;;;;;;;6269667;28;20067;-72
2024/01/02 14:52:18;;;;;;;12.90;6.28;;;;;;;;;;6236321;28;20044;-72
2024/01/02 14:55:31;;;;;;;45.60;23.75;;;;;;;;;;6287706;28;20079;-73
2024/01/02 14:59:04;;;;;;;22.23;11.45;;;;;;;;;;6280288;28;20048;-74
2024/01/02 15:02:30;;;;;;;20.00;11.25;;;;;;;;;;6298245;28;20072;-73
2024/01/02 15:05:54;;;;;;;20.40;10.77;;;;;;;;;;6277152;28;20122;-74
2024/01/02 15:09:07;;;;;;;14.35;9.23;;;;;;;;;;6265647;28;20512;-73
2024/01/02 15:12:41;;;;;;;19.00;8.70;;;;;;;;;;6270866;28;20697;-73
2024/01/02 15:16:05;;;;;;;19.60;10.35;;;;;;;;;;6270423;28;20793;-73
2024/01/02 15:19:20;;;;;;;13.93;8.75;;;;;;;;;;6294460;28;20135;-73
2024/01/02 15:22:43;;;;;;;14.32;8.98;;;;;;;;;;6269082;28;20044;-73
2024/01/02 15:26:03;;;;;;;7.90;3.15;;;;;;;;;;6276268;28;20058;-74
2024/01/02 15:29:12;;;;;;;14.48;6.10;;;;;;;;;;6282934;28;20040;-74
2024/01/02 15:32:15;;;;;;;9.30;4.32;;;;;;;;;;6248486;28;20045;-74
2024/01/02 15:35:25;;;;;;;11.05;5.65;;;;;;;;;;6261670;28;20079;-75
2024/01/02 15:38:30;;;;;;;9.90;5.15;;;;;;;;;;6267822;28;20045;-73
2024/01/02 15:41:33;;;;;;;13.07;8.45;;;;;;;;;;6282580;28;20076;-75
2024/01/02 15:44:52;;;;;;;32.70;18.33;;;;;;;;;;6265054;28;20110;-75
2024/01/02 15:48:09;;;;;;;19.40;11.48;;;;;;;;;;6269322;28;20541;-73
2024/01/02 15:51:12;;;;;;;80.30;38.38;;;;;;;;;;6280493;28;20575;-74
2024/01/02 15:54:18;;;;;;;17.45;10.77;;;;;;;;;;6293725;28;20044;-76
2024/01/02 15:57:20;;;;;;;;;;;;;;;;;;6264102;28;20035;-73
2024/01/02 16:00:23;;;;;;;18.17;10.88;;;;;;;;;;6240639;28;19921;-74
2024/01/02 16:03:42;;;;;;;18.45;11.98;;;;;;;;;;6272287;28;20109;-74
2024/01/02 16:07:03;;;;;;;13.25;9.40;;;;;;;;;;6264828;28;20052;-75
2024/01/02 16:10:05;;;;;;;34.40;18.48;;;;;;;;;;6294066;28;20043;-75
2024/01/02 16:13:18;;;;;;;56.28;24.10;;;;;;;;;;6287378;28;20119;-75
2024/01/02 16:16:47;;;;;;;36.63;19.33;;;;;;;;;;6301166;28;20036;-75
2024/01/02 16:20:11;;;;;;;45.67;22.42;;;;;;;;;;6273030;28;20049;-75
2024/01/02 16:23:15;;;;;;;;;;;;;;;;;;6251657;28;20748;-74
2024/01/02 16:27:09;;;;;;;26.40;13.38;;;;;;;;;;6289324;28;20082;-74
2024/01/02 16:30:20;;;;;;;26.70;12.70;;;;;;;;;;6251804;28;20048;-73
2024/01/02 16:33:56;;;;;;;35.20;16.25;;;;;;;;;;6279291;28;20060;-74
2024/01/02 16:37:21;;;;;;;21.38;12.10;;;;;;;;;;6279568;28;20885;-74
2024/01/02 16:40:45;;;;;;;27.33;12.38;;;;;;;;;;6271622;28;20037;-74
2024/01/02 16:43:49;;;;;;;24.10;11.57;;;;;;;;;;6276056;28;20434;-74
2024/01/02 16:46:51;;;;;;;24.83;9.82;;;;;;;;;;6290314;28;20036;-74
2024/01/02 16:49:53;;;;;;;12.68;6.18;;;;;;;;;;6278394;28;20051;-75
2024/01/02 16:52:56;;;;;;;14.45;6.80;;;;;;;;;;6282338;28;20240;-73
2024/01/02 16:55:58;;;;;;;9.38;5.78;;;;;;;;;;6290273;28;20049;-73
2024/01/02 16:59:04;;;;;;;9.00;5.50;;;;;;;;;;6279768;28;20082;-75
2024/01/02 17:02:16;;;;;;;10.35;5.22;;;;;;;;;;6277084;28;20088;-74
2024/01/02 17:05:19;;;;;;;9.82;5.88;;;;;;;;;;6283179;28;20733;-75
2024/01/02 17:08:23;;;;;;;21.65;15.18;;;;;;;;;;6274257;28;20055;-74
2024/01/02 17:11:26;;;;;;;10.85;5.82;;;;;;;;;;6278177;28;20094;-75
2024/01/02 17:14:31;;;;;;;19.13;11.68;;;;;;;;;;6277365;28;20057;-74
2024/01/02 17:17:34;;;;;;;12.40;8.18;;;;;;;;;;6253799;28;20139;-73
2024/01/02 17:20:38;;;;;;;14.98;10.55;;;;;;;;;;6275324;28;20045;-73
2024/01/02 17:23:40;;;;;;;21.88;11.10;;;;;;;;;;6298996;28;20540;-74
2024/01/02 17:26:43;;;;;;;27.33;15.15;;;;;;;;;;6251863;28;20048;-76
2024/01/02 17:29:47;;;;;;;22.70;14.23;;;;;;;;;;6297003;28;20037;-74
2024/01/02 17:32:51;;;;;;;23.63;13.15;;;;;;;;;;6291939;28;20133;-73
2024/01/02 17:35:54;;;;;;;24.80;14.50;;;;;;;;;;6273601;28;20554;-73
2024/01/02 17:38:57;;;;;;;21.95;12.98;;;;;;;;;;6295487;28;20040;-73
2024/01/02 17:42:00;;;;;;;34.88;17.88;;;;;;;;;;6277980;28;20135;-76
2024/01/02 17:45:03;;;;;;;29.42;22.50;;;;;;;;;;6272104;28;20080;-75
2024/01/02 17:48:08;;;;;;;35.15;21.45;;;;;;;;;;6292087;28;20885;-76
2024/01/02 17:51:15;;;;;;;26.02;16.20;;;;;;;;;;6283912;28;20040;-76
2024/01/02 17:54:18;;;;;;;26.77;16.40;;;;;;;;;;6292652;28;20059;-75
2024/01/02 17:57:25;;;;;;;20.40;12.05;;;;;;;;;;6265965;28;20048;-75
2024/01/02 18:00:35;;;;;;;19.15;11.07;;;;;;;;;;6302890;28;20044;-75
2024/01/02 18:03:50;;;;;;;19.80;13.38;;;;;;;;;;6284572;28;20063;-74
2024/01/02 18:07:18;;;;;;;28.50;15.32;;;;;;;;;;6274278;28;20413;-75
2024/01/02 18:10:25;;;;;;;42.40;20.13;;;;;;;;;;6286968;28;20040;-76
2024/01/02 18:13:35;;;;;;;38.17;17.45;;;;;;;;;;6288892;28;20053;-76
2024/01/02 18:16:42;;;;;;;28.90;16.58;;;;;;;;;;6288381;28;20102;-75
2024/01/02 18:19:56;;;;;;;31.08;13.75;;;;;;;;;;6287650;28;20234;-75
2024/01/02 18:23:02;;;;;;;27.75;16.83;;;;;;;;;;6283525;28;20666;-74
2024/01/02 18:26:11;;;;;;;24.38;13.55;;;;;;;;;;6274521;28;20044;-76